Time;durP1;ratioP1;P1;durP2;ratioP2;P2;SDS_P1;SDS_P2;PMS_P1;PMS_P2;Temp;Humidity;BMP_temperature;BMP_pressure;BME280_temperature;BME280_humidity;BME280_pressure;Samples;Min_cycle;Max_cycle;Signal;HPM_P1;HPM_P2
2022/07/27 00:00:51;;;;;;;1.30;0.60;;;19.30;88.30;;;;;;5092663;28;20048;-64
2022/07/27 00:03:17;;;;;;;1.55;0.40;;;19.30;88.00;;;;;;5125830;28;20051;-67
2022/07/27 00:05:43;;;;;;;1.20;0.63;;;19.30;88.20;;;;;;5116556;28;20074;-64
2022/07/27 00:08:10;;;;;;;1.13;0.90;;;;;;;;;;5132195;28;20035;-76
2022/07/27 00:10:37;;;;;;;0.65;0.65;;;19.30;93.80;;;;;;5130283;28;20060;-64
2022/07/27 00:13:04;;;;;;;1.35;0.52;;;19.10;89.00;;;;;;5113324;28;20057;-65
2022/07/27 00:15:30;;;;;;;4.47;0.70;;;;;;;;;;5112895;28;20046;-71
2022/07/27 00:17:59;;;;;;;2.13;0.60;;;19.00;99.90;;;;;;5112994;28;20388;-64
2022/07/27 00:20:26;;;;;;;3.05;0.70;;;18.90;89.70;;;;;;5113273;28;20050;-63
2022/07/27 00:22:52;;;;;;;2.00;0.70;;;18.90;89.50;;;;;;5113180;28;20502;-66
2022/07/27 00:25:18;;;;;;;1.33;0.90;;;19.00;89.20;;;;;;5112425;28;20045;-64
2022/07/27 00:27:43;;;;;;;2.13;0.77;;;18.90;89.40;;;;;;5113335;28;20031;-64
2022/07/27 00:30:09;;;;;;;1.95;0.95;;;19.00;89.40;;;;;;5112845;28;20083;-64
2022/07/27 00:32:35;;;;;;;1.48;0.55;;;18.90;89.40;;;;;;5112608;28;20423;-63
2022/07/27 00:35:01;;;;;;;1.10;0.65;;;18.90;89.50;;;;;;5112909;28;20047;-65
2022/07/27 00:37:26;;;;;;;1.98;0.60;;;19.00;90.90;;;;;;5112973;28;20036;-64
2022/07/27 00:39:53;;;;;;;2.15;0.60;;;;;;;;;;5113044;28;20070;-64
2022/07/27 00:42:25;;;;;;;3.53;0.45;;;18.90;99.90;;;;;;5112941;28;20055;-65
2022/07/27 00:44:51;;;;;;;4.30;1.17;;;18.70;90.00;;;;;;5112912;28;20387;-64
2022/07/27 00:47:17;;;;;;;3.72;0.80;;;18.80;89.70;;;;;;5112717;28;20126;-64
2022/07/27 00:49:42;;;;;;;2.22;0.85;;;18.70;89.80;;;;;;5115155;28;20043;-65
2022/07/27 00:52:08;;;;;;;3.00;0.93;;;18.70;89.60;;;;;;5116421;28;20043;-63
2022/07/27 00:54:34;;;;;;;1.75;0.75;;;18.70;89.60;;;;;;5116850;28;20116;-69
2022/07/27 00:57:00;;;;;;;0.70;0.60;;;18.60;89.80;;;;;;5115774;28;20035;-63
2022/07/27 00:59:27;;;;;;;0.85;0.52;;;18.70;90.00;;;;;;5116590;28;20047;-63
2022/07/27 01:01:53;;;;;;;1.45;0.50;;;18.50;89.80;;;;;;5098415;28;20023;-62
2022/07/27 01:04:18;;;;;;;2.33;1.02;;;18.40;90.00;;;;;;5116551;28;20056;-64
2022/07/27 01:06:44;;;;;;;1.27;0.70;;;18.40;90.10;;;;;;5116662;28;20041;-63
2022/07/27 01:11:54;;;;;;;3.30;0.45;;;18.30;90.20;;;;;;5116192;28;20078;-64
2022/07/27 01:14:20;;;;;;;1.30;0.52;;;18.20;90.40;;;;;;5116235;28;20506;-63
2022/07/27 01:16:46;;;;;;;1.42;0.70;;;18.20;90.40;;;;;;5116103;28;20138;-64
2022/07/27 01:19:13;;;;;;;0.82;0.50;;;18.20;90.30;;;;;;5115336;28;20035;-64
2022/07/27 01:21:39;;;;;;;0.82;0.60;;;18.20;90.40;;;;;;5116066;28;20044;-63
2022/07/27 01:24:06;;;;;;;0.73;0.63;;;18.20;90.40;;;;;;5116182;28;20062;-63
2022/07/27 01:26:33;;;;;;;2.85;0.88;;;18.20;90.30;;;;;;5115839;28;20032;-63
2022/07/27 01:29:00;;;;;;;1.48;0.55;;;18.20;90.40;;;;;;5116172;28;20040;-63
2022/07/27 01:31:26;;;;;;;1.33;0.60;;;18.20;90.40;;;;;;5116121;28;20051;-63
2022/07/27 01:33:52;;;;;;;1.08;0.63;;;18.20;90.50;;;;;;5114610;28;20036;-63
2022/07/27 01:36:17;;;;;;;1.60;0.75;;;18.20;90.50;;;;;;5114775;28;20040;-64
2022/07/27 01:38:44;;;;;;;2.33;0.82;;;18.10;90.60;;;;;;5116026;28;20044;-66
2022/07/27 01:41:10;;;;;;;2.05;0.77;;;18.00;90.70;;;;;;5115640;28;20067;-76
2022/07/27 01:43:35;;;;;;;4.80;0.50;;;18.00;90.70;;;;;;5112680;28;20066;-71
2022/07/27 01:46:02;;;;;;;2.28;0.80;;;18.00;90.70;;;;;;5080915;28;20131;-71
2022/07/27 01:48:28;;;;;;;1.58;0.57;;;18.00;90.80;;;;;;5092725;28;20035;-75
2022/07/27 01:50:58;;;;;;;1.08;0.63;;;18.00;90.80;;;;;;5093585;28;20047;-74
2022/07/27 01:53:28;;;;;;;3.53;0.90;;;18.00;90.80;;;;;;5109653;28;20036;-66
2022/07/27 01:55:54;;;;;;;5.97;0.95;;;18.00;90.80;;;;;;5113787;28;20042;-74
2022/07/27 01:58:20;;;;;;;1.75;0.70;;;17.90;91.00;;;;;;5114570;28;20035;-64
2022/07/27 02:00:47;;;;;;;4.22;0.68;;;17.90;91.00;;;;;;5113360;28;20048;-73
2022/07/27 02:03:13;;;;;;;0.50;0.50;;;17.90;91.00;;;;;;5114231;28;20031;-63
2022/07/27 02:05:39;;;;;;;2.90;0.63;;;17.90;91.00;;;;;;5097211;28;20042;-69
2022/07/27 02:08:07;;;;;;;0.75;0.57;;;17.80;91.10;;;;;;5115459;28;20494;-76
2022/07/27 02:10:33;;;;;;;0.98;0.50;;;17.80;91.40;;;;;;5114865;28;20064;-68
2022/07/27 02:12:59;;;;;;;5.10;0.60;;;17.80;91.20;;;;;;5112825;28;20059;-65
2022/07/27 02:15:27;;;;;;;5.22;1.23;;;17.70;91.40;;;;;;5102617;28;20129;-64
2022/07/27 02:17:53;;;;;;;2.13;1.05;;;17.80;91.10;;;;;;5092555;28;20067;-65
2022/07/27 02:20:21;;;;;;;1.15;0.70;;;17.80;91.10;;;;;;5092921;28;20050;-64
2022/07/27 02:22:47;;;;;;;2.40;0.80;;;17.80;91.10;;;;;;5094384;28;20039;-63
2022/07/27 02:25:15;;;;;;;1.40;0.80;;;17.70;91.20;;;;;;5094670;28;20109;-64
2022/07/27 02:27:42;;;;;;;2.05;0.90;;;17.80;91.20;;;;;;5094100;28;20036;-63
2022/07/27 02:30:10;;;;;;;1.70;1.10;;;17.90;91.20;;;;;;5094535;28;20055;-63
2022/07/27 02:32:36;;;;;;;1.85;0.85;;;17.80;91.30;;;;;;5094805;28;20093;-63
2022/07/27 02:35:02;;;;;;;1.80;0.65;;;17.80;91.30;;;;;;5094092;28;20040;-75
2022/07/27 02:37:28;;;;;;;1.42;0.63;;;17.70;91.50;;;;;;5094052;28;20454;-63
2022/07/27 02:39:54;;;;;;;6.22;0.82;;;17.70;91.50;;;;;;5094202;28;20039;-64
2022/07/27 02:42:20;;;;;;;0.88;0.70;;;17.60;91.70;;;;;;5093974;28;20093;-63
2022/07/27 02:44:45;;;;;;;5.32;1.05;;;17.80;91.60;;;;;;5074826;28;20040;-64
2022/07/27 02:47:11;;;;;;;1.10;0.65;;;17.70;91.60;;;;;;5093448;28;20127;-64
2022/07/27 02:49:37;;;;;;;2.85;0.80;;;17.60;91.60;;;;;;5093944;28;20448;-63
2022/07/27 02:52:04;;;;;;;1.92;0.65;;;17.60;91.80;;;;;;5093247;28;20782;-64
2022/07/27 02:54:31;;;;;;;3.22;0.98;;;17.60;91.80;;;;;;5093187;28;20073;-64
2022/07/27 02:56:59;;;;;;;2.47;0.70;;;17.60;91.80;;;;;;5093895;28;20056;-67
2022/07/27 02:59:25;;;;;;;5.68;0.70;;;17.70;91.80;;;;;;5092856;28;20076;-64
2022/07/27 03:01:51;;;;;;;2.67;0.70;;;17.60;91.90;;;;;;5075854;28;20495;-64
2022/07/27 03:04:17;;;;;;;2.97;0.88;;;17.70;92.00;;;;;;5092519;28;20043;-65
2022/07/27 03:06:44;;;;;;;3.92;0.70;;;17.60;91.90;;;;;;5093715;28;20122;-64
2022/07/27 03:09:10;;;;;;;1.73;0.70;;;17.60;92.10;;;;;;5093692;28;20032;-64
2022/07/27 03:11:36;;;;;;;1.73;0.70;;;17.60;92.10;;;;;;5093246;28;20046;-63
2022/07/27 03:14:02;;;;;;;2.97;0.73;;;17.70;92.10;;;;;;5093778;28;20075;-63
2022/07/27 03:16:28;;;;;;;3.00;0.80;;;17.70;92.10;;;;;;5093780;28;20085;-64
2022/07/27 03:18:56;;;;;;;1.35;0.63;;;17.60;92.00;;;;;;5093837;28;20595;-63
2022/07/27 03:21:22;;;;;;;0.95;0.52;;;17.60;92.00;;;;;;5093616;28;20468;-65
2022/07/27 03:23:48;;;;;;;2.03;1.00;;;17.40;92.30;;;;;;5093444;28;20064;-63
2022/07/27 03:26:15;;;;;;;3.95;0.75;;;17.50;92.30;;;;;;5093388;28;20067;-63
2022/07/27 03:28:40;;;;;;;6.05;0.80;;;17.60;92.20;;;;;;5093168;28;20057;-63
2022/07/27 03:31:06;;;;;;;1.40;0.80;;;17.60;92.30;;;;;;5091724;28;20064;-66
2022/07/27 03:33:34;;;;;;;0.95;0.73;;;17.60;92.40;;;;;;5093131;28;20377;-64
2022/07/27 03:35:59;;;;;;;0.70;0.70;;;17.60;92.60;;;;;;5092948;28;20093;-63
2022/07/27 03:38:25;;;;;;;8.75;1.23;;;17.40;92.40;;;;;;5093198;28;20032;-63
2022/07/27 03:40:51;;;;;;;2.50;0.77;;;17.40;92.60;;;;;;5093351;28;20040;-64
2022/07/27 03:43:17;;;;;;;1.23;0.60;;;17.40;92.60;;;;;;5093622;28;20123;-66
2022/07/27 03:45:43;;;;;;;7.30;0.98;;;;;;;;;;5093119;28;20448;-64
2022/07/27 03:48:09;;;;;;;1.13;0.68;;;17.40;92.50;;;;;;5093083;28;20047;-64
2022/07/27 03:50:35;;;;;;;1.73;0.82;;;17.40;92.70;;;;;;5096964;27;20055;-63
2022/07/27 03:53:01;;;;;;;3.95;0.77;;;17.40;92.60;;;;;;5119568;27;20042;-63
2022/07/27 03:55:27;;;;;;;1.45;1.13;;;17.30;92.80;;;;;;5112272;28;20050;-63
2022/07/27 03:57:53;;;;;;;3.70;0.80;;;17.20;92.90;;;;;;5113421;28;20027;-64
2022/07/27 04:00:19;;;;;;;4.38;0.80;;;17.20;93.20;;;;;;5115750;28;20130;-63
2022/07/27 04:02:45;;;;;;;0.98;0.70;;;17.10;93.10;;;;;;5129067;28;20039;-64
2022/07/27 04:05:11;;;;;;;2.97;0.93;;;17.10;93.20;;;;;;5130164;28;20039;-65
2022/07/27 04:07:38;;;;;;;1.80;0.65;;;17.00;93.30;;;;;;5133321;28;20043;-63
2022/07/27 04:10:05;;;;;;;4.13;0.82;;;17.00;93.40;;;;;;5121751;28;20097;-63
2022/07/27 04:12:31;;;;;;;1.33;0.80;;;17.10;96.90;;;;;;5113527;28;20046;-63
2022/07/27 04:14:57;;;;;;;4.13;1.00;;;16.90;93.50;;;;;;5113107;28;20461;-64
2022/07/27 04:17:23;;;;;;;2.92;0.70;;;16.90;93.50;;;;;;5112168;28;20039;-64
2022/07/27 04:19:49;;;;;;;2.03;1.00;;;16.90;93.50;;;;;;5112093;28;20043;-63
2022/07/27 04:22:14;;;;;;;6.05;1.02;;;17.00;93.40;;;;;;5111649;28;20042;-63
2022/07/27 04:24:40;;;;;;;1.92;0.90;;;17.00;93.40;;;;;;5114709;28;20047;-64
2022/07/27 04:27:06;;;;;;;4.88;0.60;;;17.10;93.40;;;;;;5116873;28;20046;-63
2022/07/27 04:29:31;;;;;;;1.77;0.80;;;17.10;93.40;;;;;;5116953;28;20521;-65
2022/07/27 04:31:57;;;;;;;1.42;0.73;;;17.10;93.50;;;;;;5117116;28;20076;-64
2022/07/27 04:34:23;;;;;;;2.58;0.70;;;17.20;93.50;;;;;;5117029;28;20046;-65
2022/07/27 04:36:49;;;;;;;2.22;0.65;;;17.30;93.90;;;;;;5116057;28;20039;-63
2022/07/27 04:39:15;;;;;;;2.13;0.60;;;17.20;93.30;;;;;;5116956;28;20035;-64
2022/07/27 04:41:41;;;;;;;1.23;0.70;;;17.40;94.70;;;;;;5116771;28;20034;-63
2022/07/27 04:44:07;;;;;;;2.60;0.70;;;17.40;94.10;;;;;;5116940;28;20043;-64
2022/07/27 04:46:32;;;;;;;2.10;0.60;;;17.30;93.40;;;;;;5116932;28;20050;-63
2022/07/27 04:48:58;;;;;;;3.13;0.82;;;17.20;93.30;;;;;;5116652;28;20035;-63
2022/07/27 04:51:24;;;;;;;2.08;0.88;;;17.20;93.40;;;;;;5116529;28;20109;-64
2022/07/27 04:53:50;;;;;;;2.20;0.80;;;17.20;93.40;;;;;;5116659;28;20046;-64
2022/07/27 04:56:15;;;;;;;1.52;0.65;;;17.20;93.20;;;;;;5116780;28;20089;-64
2022/07/27 04:58:41;;;;;;;3.08;0.90;;;17.40;93.30;;;;;;5116777;28;20028;-64
2022/07/27 05:01:10;;;;;;;2.25;0.75;;;17.40;93.20;;;;;;5116729;28;20051;-64
2022/07/27 05:03:36;;;;;;;7.80;0.70;;;;;;;;;;5098454;28;20046;-65
2022/07/27 05:06:02;;;;;;;1.42;0.75;;;17.40;93.30;;;;;;5116619;28;20043;-64
2022/07/27 05:08:28;;;;;;;0.55;0.55;;;17.40;93.10;;;;;;5116613;28;20039;-64
2022/07/27 05:10:53;;;;;;;2.72;0.70;;;17.60;96.50;;;;;;5116445;28;20086;-64
2022/07/27 05:13:20;;;;;;;1.58;0.65;;;17.60;93.00;;;;;;5116320;28;20031;-64
2022/07/27 05:15:46;;;;;;;4.22;0.80;;;17.60;93.40;;;;;;5116428;28;20448;-64
2022/07/27 05:18:12;;;;;;;0.80;0.70;;;17.50;93.10;;;;;;5116347;28;20496;-63
2022/07/27 05:20:37;;;;;;;4.18;0.63;;;17.60;93.10;;;;;;5116343;28;20151;-64
2022/07/27 05:23:03;;;;;;;4.55;0.50;;;17.70;93.20;;;;;;5116234;28;20050;-64
2022/07/27 05:25:29;;;;;;;1.85;1.38;;;17.70;93.30;;;;;;5116195;28;20096;-65
2022/07/27 05:27:55;;;;;;;2.03;0.70;;;17.90;93.10;;;;;;5116229;28;20036;-64
2022/07/27 05:30:22;;;;;;;5.78;0.95;;;18.00;93.10;;;;;;5097740;28;20052;-64
2022/07/27 05:32:48;;;;;;;3.38;0.95;;;18.20;92.80;;;;;;5114971;28;20032;-70
2022/07/27 05:35:14;;;;;;;1.08;0.85;;;18.30;92.60;;;;;;5097350;28;20055;-64
2022/07/27 05:37:40;;;;;;;3.55;1.00;;;18.20;92.30;;;;;;5114744;28;20032;-78
2022/07/27 05:40:07;;;;;;;1.85;0.70;;;18.40;92.70;;;;;;5116044;28;20047;-71
2022/07/27 05:42:33;;;;;;;2.15;0.70;;;18.60;92.00;;;;;;5116018;28;20839;-64
2022/07/27 05:45:00;;;;;;;1.83;0.77;;;;;;;;;;5115921;28;20044;-67
2022/07/27 05:47:26;;;;;;;2.90;0.70;;;19.00;92.40;;;;;;5115777;28;20431;-64
2022/07/27 05:49:51;;;;;;;3.28;0.70;;;19.10;91.90;;;;;;5115662;28;20054;-64
2022/07/27 05:52:19;;;;;;;2.78;0.80;;;19.10;91.90;;;;;;5115681;28;20536;-65
2022/07/27 05:54:45;;;;;;;3.08;0.60;;;19.40;92.30;;;;;;5115711;28;20435;-63
2022/07/27 05:57:14;;;;;;;6.55;0.93;;;19.50;90.70;;;;;;5115700;28;20174;-63
2022/07/27 05:59:40;;;;;;;3.03;0.75;;;19.50;91.00;;;;;;5115322;28;20096;-63
2022/07/27 06:02:07;;;;;;;5.53;0.98;;;20.10;91.50;;;;;;5115150;28;20383;-65
2022/07/27 06:04:33;;;;;;;2.45;0.80;;;20.10;90.20;;;;;;5115466;28;20042;-64
2022/07/27 06:09:44;;;;;;;6.82;1.27;;;20.00;88.60;;;;;;5115218;28;20066;-64
2022/07/27 06:12:10;;;;;;;4.70;0.70;;;20.00;88.50;;;;;;5114935;28;20039;-64
2022/07/27 06:14:36;;;;;;;2.20;0.57;;;20.10;88.00;;;;;;5115103;28;20056;-64
2022/07/27 06:17:02;;;;;;;2.63;0.80;;;20.40;88.90;;;;;;5097042;28;20405;-64
2022/07/27 06:19:28;;;;;;;1.20;0.68;;;20.40;87.60;;;;;;5115063;28;20111;-63
2022/07/27 06:21:54;;;;;;;1.90;0.70;;;20.30;88.40;;;;;;5111690;28;20031;-71
2022/07/27 06:24:19;;;;;;;3.95;0.65;;;20.80;87.80;;;;;;5095040;28;20044;-64
2022/07/27 06:26:45;;;;;;;1.63;0.70;;;21.00;87.60;;;;;;5094202;28;20498;-63
2022/07/27 06:29:11;;;;;;;1.00;0.63;;;20.80;87.10;;;;;;5094442;28;20105;-63
2022/07/27 06:31:36;;;;;;;5.97;1.00;;;20.60;86.20;;;;;;5094612;28;20500;-67
2022/07/27 06:34:02;;;;;;;4.68;1.05;;;20.70;86.30;;;;;;5094595;28;20089;-63
2022/07/27 06:36:28;;;;;;;1.88;0.60;;;20.60;86.30;;;;;;5076191;28;20036;-63
2022/07/27 06:38:54;;;;;;;1.67;0.80;;;21.10;87.40;;;;;;5094330;28;20046;-64
2022/07/27 06:41:20;;;;;;;1.00;0.63;;;20.80;85.50;;;;;;5094089;28;20044;-63
2022/07/27 06:43:45;;;;;;;3.70;0.73;;;20.50;85.20;;;;;;5094153;28;20036;-63
2022/07/27 06:46:12;;;;;;;1.17;0.55;;;21.00;85.90;;;;;;5093313;28;20039;-63
2022/07/27 06:48:39;;;;;;;1.55;0.80;;;20.90;85.10;;;;;;5094160;28;20530;-63
2022/07/27 06:51:05;;;;;;;1.48;0.60;;;20.60;84.70;;;;;;5094006;28;20078;-63
2022/07/27 06:53:31;;;;;;;1.85;0.68;;;20.80;85.90;;;;;;5094023;28;20054;-63
2022/07/27 06:56:02;;;;;;;2.10;0.80;;;20.80;84.40;;;;;;5093940;28;20384;-63
2022/07/27 06:58:31;;;;;;;0.75;0.55;;;20.90;84.80;;;;;;5098024;28;20126;-63
2022/07/27 07:00:58;;;;;;;2.45;0.65;;;20.90;84.30;;;;;;5114468;28;20173;-63
2022/07/27 07:03:24;;;;;;;2.40;0.88;;;21.20;83.50;;;;;;5113883;28;20047;-63
2022/07/27 07:05:49;;;;;;;1.23;0.65;;;21.10;81.50;;;;;;5114006;28;20414;-64
2022/07/27 07:08:15;;;;;;;1.83;0.50;;;21.20;82.40;;;;;;5113921;28;20035;-63
2022/07/27 07:10:43;;;;;;;1.13;0.55;;;21.20;82.20;;;;;;5113694;28;20056;-65
2022/07/27 07:13:10;;;;;;;1.15;0.70;;;21.40;82.40;;;;;;5095631;28;20069;-63
2022/07/27 07:15:39;;;;;;;1.70;0.60;;;21.60;82.10;;;;;;5113884;28;20060;-63
2022/07/27 07:18:09;;;;;;;2.97;0.82;;;21.30;82.40;;;;;;5113760;28;20027;-73
2022/07/27 07:20:35;;;;;;;;;;;21.20;83.80;;;;;;5114149;28;20084;-63
2022/07/27 07:23:02;;;;;;;1.95;0.55;;;21.30;83.50;;;;;;5114015;28;19938;-63
2022/07/27 07:25:28;;;;;;;2.05;0.70;;;21.30;83.10;;;;;;5113760;28;20467;-63
2022/07/27 07:27:54;;;;;;;2.45;0.90;;;21.70;83.30;;;;;;5113685;28;20392;-63
2022/07/27 07:30:20;;;;;;;1.60;0.60;;;21.50;83.70;;;;;;5114083;28;20044;-65
2022/07/27 07:32:46;;;;;;;1.23;0.65;;;21.30;82.10;;;;;;5113939;28;20035;-70
2022/07/27 07:35:12;;;;;;;2.40;0.75;;;21.30;81.30;;;;;;5113848;28;20410;-68
2022/07/27 07:37:38;;;;;;;3.00;0.70;;;21.30;83.20;;;;;;5113784;28;20042;-73
2022/07/27 07:40:05;;;;;;;4.88;1.58;;;;;;;;;;5113381;28;20138;-68
2022/07/27 07:42:31;;;;;;;1.05;0.68;;;21.40;80.80;;;;;;5107484;28;20039;-64
2022/07/27 07:44:57;;;;;;;4.07;0.88;;;21.20;82.40;;;;;;5093314;28;20522;-72
2022/07/27 07:47:23;;;;;;;3.92;0.60;;;21.60;82.40;;;;;;5113703;28;20072;-66
2022/07/27 07:49:49;;;;;;;3.30;0.70;;;21.40;79.70;;;;;;5113476;28;20436;-63
2022/07/27 07:52:15;;;;;;;2.80;0.60;;;21.40;80.40;;;;;;5101081;28;20074;-64
2022/07/27 07:54:41;;;;;;;1.23;0.70;;;21.20;80.20;;;;;;5093211;28;20044;-65
2022/07/27 07:57:07;;;;;;;2.03;0.68;;;21.40;79.00;;;;;;5093004;28;20040;-66
2022/07/27 07:59:33;;;;;;;1.58;0.85;;;21.30;79.20;;;;;;5092945;28;20130;-64
2022/07/27 08:02:01;;;;;;;0.77;0.60;;;22.40;80.50;;;;;;5093049;28;20040;-65
2022/07/27 08:04:26;;;;;;;4.97;2.20;;;22.40;78.00;;;;;;5092388;28;20070;-64
2022/07/27 08:06:52;;;;;;;11.75;4.68;;;22.10;80.70;;;;;;5097298;28;20078;-66
2022/07/27 08:09:20;;;;;;;11.38;4.70;;;22.40;81.60;;;;;;5111668;28;20035;-64
2022/07/27 08:11:46;;;;;;;5.75;1.88;;;22.60;80.80;;;;;;5110727;28;20492;-75
2022/07/27 08:14:12;;;;;;;2.88;1.30;;;21.80;79.50;;;;;;5092346;28;20031;-64
2022/07/27 08:16:38;;;;;;;5.25;1.90;;;22.00;80.20;;;;;;5110143;28;20511;-67
2022/07/27 08:19:04;;;;;;;1.98;0.90;;;21.60;80.00;;;;;;5092048;28;20039;-77
2022/07/27 08:21:29;;;;;;;1.00;0.70;;;21.80;79.50;;;;;;5110999;28;20038;-69
2022/07/27 08:23:55;;;;;;;2.85;0.70;;;21.80;81.00;;;;;;5111643;28;20038;-76
2022/07/27 08:26:21;;;;;;;1.70;0.60;;;21.90;80.50;;;;;;5110376;28;20078;-75
2022/07/27 08:28:47;;;;;;;2.70;0.93;;;22.00;80.10;;;;;;5110641;28;20706;-77
2022/07/27 08:31:12;;;;;;;4.05;0.70;;;22.10;79.80;;;;;;5109808;28;20410;-73
2022/07/27 08:33:38;;;;;;;0.63;0.50;;;22.10;79.10;;;;;;5109242;28;20054;-77
2022/07/27 08:36:06;;;;;;;0.85;0.50;;;22.10;80.10;;;;;;5109174;28;20044;-77
2022/07/27 08:38:32;;;;;;;0.98;0.68;;;22.30;80.40;;;;;;5109768;28;20032;-65
2022/07/27 08:41:00;;;;;;;2.50;0.80;;;22.10;81.20;;;;;;5110162;28;20418;-79
2022/07/27 08:43:26;;;;;;;5.30;0.80;;;22.00;81.30;;;;;;5111580;28;20418;-79
2022/07/27 08:45:55;;;;;;;1.05;0.52;;;22.20;81.10;;;;;;5110663;28;20043;-78
2022/07/27 08:48:23;;;;;;;6.88;0.75;;;22.50;80.50;;;;;;5110848;28;20031;-68
2022/07/27 08:50:49;;;;;;;2.47;0.90;;;22.30;79.90;;;;;;5110927;28;20193;-66
2022/07/27 08:53:15;;;;;;;1.98;0.70;;;22.30;80.00;;;;;;5109123;28;20071;-71
2022/07/27 08:55:46;;;;;;;2.75;0.60;;;22.20;80.10;;;;;;5109574;28;20043;-78
2022/07/27 08:58:13;;;;;;;0.75;0.50;;;22.30;79.60;;;;;;5109612;28;20046;-66
2022/07/27 09:00:42;;;;;;;0.77;0.60;;;22.10;79.90;;;;;;5109512;28;20056;-77
2022/07/27 09:03:16;;;;;;;1.13;0.65;;;22.10;79.70;;;;;;5109551;28;20040;-67
2022/07/27 09:05:47;;;;;;;3.92;0.52;;;22.70;79.90;;;;;;5110358;28;20043;-72
2022/07/27 09:08:16;;;;;;;1.88;0.82;;;22.40;79.90;;;;;;5109523;28;20503;-76
2022/07/27 09:10:42;;;;;;;0.77;0.50;;;23.30;79.30;;;;;;5112723;28;20057;-77
2022/07/27 09:13:23;;;;;;;0.93;0.70;;;23.30;78.20;;;;;;5114023;28;20036;-76
2022/07/27 09:15:50;;;;;;;;;;;23.10;78.40;;;;;;5114277;28;20049;-76
2022/07/27 09:18:21;;;;;;;2.08;0.75;;;23.10;79.20;;;;;;5095802;28;20513;-73
2022/07/27 09:21:09;;;;;;;3.08;0.88;;;22.50;79.00;;;;;;5114319;28;20046;-68
2022/07/27 09:23:36;;;;;;;0.75;0.60;;;23.30;78.00;;;;;;5113947;28;20039;-66
2022/07/27 09:26:29;;;;;;;2.00;0.70;;;23.70;79.00;;;;;;5115599;28;20031;-72
2022/07/27 09:29:01;;;;;;;0.90;0.57;;;22.80;79.40;;;;;;5112692;28;20501;-76
2022/07/27 09:31:27;;;;;;;4.00;0.85;;;23.00;79.50;;;;;;5115043;28;20059;-66
2022/07/27 09:33:56;;;;;;;2.97;0.85;;;23.70;78.70;;;;;;5114395;28;20063;-70
2022/07/27 09:36:26;;;;;;;2.03;1.10;;;23.70;77.90;;;;;;5096209;28;20044;-79
2022/07/27 09:38:58;;;;;;;0.82;0.63;;;23.20;79.00;;;;;;5095838;28;20069;-80
2022/07/27 09:41:25;;;;;;;2.42;1.00;;;23.40;79.30;;;;;;5114206;28;20040;-73
2022/07/27 09:43:54;;;;;;;2.40;0.80;;;24.00;77.80;;;;;;5114604;28;20039;-77
2022/07/27 09:46:35;;;;;;;0.68;0.52;;;23.50;77.40;;;;;;5097454;28;20061;-79
2022/07/27 09:49:01;;;;;;;4.15;0.60;;;23.40;78.40;;;;;;5097655;28;20443;-66
2022/07/27 09:51:28;;;;;;;4.00;0.85;;;23.20;78.20;;;;;;5097350;28;20055;-69
2022/07/27 09:53:55;;;;;;;1.13;0.60;;;23.70;78.20;;;;;;5115747;28;20038;-76
2022/07/27 09:56:29;;;;;;;3.92;0.57;;;24.10;76.40;;;;;;5114655;28;20077;-66
2022/07/27 09:58:57;;;;;;;0.90;0.77;;;23.50;76.90;;;;;;5115571;28;20042;-76
2022/07/27 10:01:27;;;;;;;1.20;0.60;;;23.90;77.40;;;;;;5115357;28;20511;-74
2022/07/27 10:03:56;;;;;;;1.42;0.82;;;24.50;76.90;;;;;;5111015;27;20036;-67
2022/07/27 10:06:23;;;;;;;1.17;0.60;;;24.10;75.20;;;;;;5101116;28;20039;-65
2022/07/27 10:08:50;;;;;;;0.93;0.65;;;25.00;73.80;;;;;;5113386;28;20024;-66
2022/07/27 10:11:17;;;;;;;1.70;0.80;;;25.10;74.50;;;;;;5113378;28;20502;-76
2022/07/27 10:13:43;;;;;;;0.95;0.40;;;25.20;74.60;;;;;;5095181;28;20607;-74
2022/07/27 10:16:21;;;;;;;1.70;0.80;;;24.80;75.60;;;;;;5094946;28;20039;-70
2022/07/27 10:19:04;;;;;;;2.63;0.40;;;25.30;73.90;;;;;;5113371;28;20122;-64
2022/07/27 10:21:33;;;;;;;3.60;0.85;;;25.90;75.20;;;;;;5108472;28;20036;-76
2022/07/27 10:24:05;;;;;;;1.13;0.70;;;25.40;73.00;;;;;;5096482;28;20078;-69
2022/07/27 10:26:39;;;;;;;3.25;0.50;;;24.10;72.50;;;;;;5092640;28;20407;-76
2022/07/27 10:29:19;;;;;;;1.88;0.60;;;24.30;73.10;;;;;;5073400;28;20130;-71
2022/07/27 10:31:53;;;;;;;1.85;0.75;;;24.30;74.20;;;;;;5092365;28;20048;-78
2022/07/27 10:34:39;;;;;;;5.00;0.75;;;23.90;73.90;;;;;;5074165;28;20058;-77
2022/07/27 10:37:11;;;;;;;0.90;0.52;;;24.40;74.10;;;;;;5091241;28;20124;-74
2022/07/27 10:39:42;;;;;;;4.82;0.60;;;24.20;73.20;;;;;;5092299;28;20040;-65
2022/07/27 10:42:29;;;;;;;1.58;0.60;;;23.90;73.20;;;;;;5091976;28;20036;-78
2022/07/27 10:45:00;;;;;;;2.35;0.90;;;24.50;73.10;;;;;;5092127;28;20039;-65
2022/07/27 10:47:30;;;;;;;1.60;0.77;;;24.20;73.20;;;;;;5092917;28;20514;-65
2022/07/27 10:50:14;;;;;;;3.60;0.70;;;24.40;73.10;;;;;;5092138;28;20048;-65
2022/07/27 10:52:42;;;;;;;1.67;0.57;;;24.10;72.80;;;;;;5091135;28;20044;-65
2022/07/27 10:55:28;;;;;;;0.90;0.50;;;23.50;72.90;;;;;;5090242;28;20435;-65
2022/07/27 10:58:17;;;;;;;1.50;0.60;;;23.40;73.70;;;;;;5092156;28;20093;-67
2022/07/27 11:00:49;;;;;;;3.78;0.57;;;24.30;75.20;;;;;;5090706;28;20055;-65
2022/07/27 11:03:32;;;;;;;1.05;0.47;;;25.40;72.40;;;;;;5095648;28;20123;-65
2022/07/27 11:06:22;;;;;;;0.60;0.60;;;26.40;71.40;;;;;;5093675;28;20048;-65
2022/07/27 11:08:49;;;;;;;;;;;26.90;71.50;;;;;;5092613;28;20032;-64
2022/07/27 11:11:21;;;;;;;1.38;0.68;;;26.30;69.90;;;;;;5091676;28;19927;-65
2022/07/27 11:13:54;;;;;;;3.60;1.00;;;24.70;70.40;;;;;;5092867;28;20368;-65
2022/07/27 11:16:20;;;;;;;3.13;0.80;;;24.90;72.50;;;;;;5100942;28;20131;-65
2022/07/27 11:19:05;;;;;;;1.77;0.88;;;24.80;70.90;;;;;;5111364;28;20024;-65
2022/07/27 11:21:40;;;;;;;2.00;0.50;;;24.00;71.30;;;;;;5107656;28;20043;-66
2022/07/27 11:24:10;;;;;;;0.82;0.55;;;24.70;71.50;;;;;;5106405;28;20036;-65
2022/07/27 11:26:39;;;;;;;1.33;0.60;;;25.00;71.40;;;;;;5090970;28;20039;-65
2022/07/27 11:29:10;;;;;;;2.30;0.60;;;25.00;70.70;;;;;;5090956;28;20075;-65
2022/07/27 11:31:37;;;;;;;1.10;1.00;;;25.10;70.90;;;;;;5091012;28;20516;-65
2022/07/27 11:34:04;;;;;;;1.30;0.45;;;24.70;70.10;;;;;;5101178;28;20043;-65
2022/07/27 11:36:37;;;;;;;0.90;0.60;;;25.10;70.10;;;;;;5103042;28;20517;-65
2022/07/27 11:39:05;;;;;;;0.93;0.60;;;24.60;70.60;;;;;;5090858;28;20483;-65
2022/07/27 11:41:33;;;;;;;5.05;0.80;;;24.60;69.30;;;;;;5098229;28;20038;-66
2022/07/27 11:44:04;;;;;;;0.90;0.63;;;24.20;69.50;;;;;;5110871;28;20039;-65
2022/07/27 11:46:32;;;;;;;3.22;0.70;;;24.70;69.50;;;;;;5111233;28;20035;-65
2022/07/27 11:49:00;;;;;;;5.15;0.60;;;25.10;69.80;;;;;;5107719;28;20040;-65
2022/07/27 11:51:27;;;;;;;1.65;0.60;;;25.90;69.60;;;;;;5099220;28;20116;-65
2022/07/27 11:54:02;;;;;;;1.52;0.70;;;25.70;69.00;;;;;;5090992;28;20495;-65
2022/07/27 11:56:31;;;;;;;0.63;0.40;;;25.20;68.50;;;;;;5090369;28;20135;-65
2022/07/27 11:59:09;;;;;;;0.67;0.50;;;24.80;69.30;;;;;;5090344;28;20036;-65
2022/07/27 12:01:47;;;;;;;2.55;0.68;;;24.90;69.70;;;;;;5090706;28;20050;-65
2022/07/27 12:04:37;;;;;;;0.40;0.40;;;24.60;69.20;;;;;;5090200;28;20028;-65
2022/07/27 12:07:17;;;;;;;2.35;0.50;;;25.10;68.90;;;;;;5101100;28;20043;-69
2022/07/27 12:09:47;;;;;;;;;;;25.30;69.80;;;;;;5092715;28;20529;-72
2022/07/27 12:12:18;;;;;;;1.10;0.80;;;25.70;71.30;;;;;;5110920;28;19916;-69
2022/07/27 12:14:55;;;;;;;4.05;0.60;;;26.10;69.10;;;;;;5092407;28;20044;-66
2022/07/27 12:17:34;;;;;;;0.65;0.50;;;26.20;67.90;;;;;;5110545;28;20123;-66
2022/07/27 12:20:04;;;;;;;0.40;0.40;;;25.60;68.30;;;;;;5110067;28;20036;-66
2022/07/27 12:22:42;;;;;;;1.15;0.70;;;25.50;68.40;;;;;;5110875;28;20040;-71
2022/07/27 12:25:18;;;;;;;0.80;0.70;;;25.00;68.70;;;;;;5110635;28;20084;-67
2022/07/27 12:27:58;;;;;;;1.70;0.60;;;25.20;68.80;;;;;;5110941;28;20062;-68
2022/07/27 12:30:50;;;;;;;4.95;0.50;;;25.10;68.30;;;;;;5111811;28;20036;-67
2022/07/27 12:33:34;;;;;;;3.95;0.85;;;25.50;68.60;;;;;;5106010;28;20084;-66
2022/07/27 12:36:02;;;;;;;0.77;0.68;;;25.90;68.90;;;;;;5110086;28;20096;-67
2022/07/27 12:38:49;;;;;;;0.80;0.57;;;26.00;68.00;;;;;;5110691;28;20047;-70
2022/07/27 12:41:28;;;;;;;0.80;0.50;;;25.80;67.80;;;;;;5092840;28;20518;-73
2022/07/27 12:44:15;;;;;;;1.02;0.65;;;26.00;67.80;;;;;;5110942;28;20044;-65
2022/07/27 12:46:52;;;;;;;3.15;0.43;;;26.00;67.10;;;;;;5114569;28;20042;-65
2022/07/27 12:49:22;;;;;;;1.45;0.55;;;26.10;66.60;;;;;;5114221;28;20036;-65
2022/07/27 12:51:48;;;;;;;;;;;26.00;66.80;;;;;;5105922;28;20430;-65
2022/07/27 12:54:13;;;;;;;1.92;0.63;;;26.20;67.60;;;;;;5094003;28;19914;-65
2022/07/27 12:56:39;;;;;;;1.17;0.52;;;26.40;67.20;;;;;;5095835;28;20056;-65
2022/07/27 12:59:05;;;;;;;2.17;0.50;;;26.30;66.90;;;;;;5095579;28;20098;-65
2022/07/27 13:01:31;;;;;;;1.25;0.60;;;25.70;67.20;;;;;;5094520;28;20044;-64